Impacts TAF Board
For situational awareness. Not to be used for flight planning purposes.
IDs:

KAOO - Altoona/Blair Cnty, PA, US

Issued at 1346 UTC 03 Dec 2021
Updated at 1525 UTC 03 Dec 2021
Potential Impact None Slight Moderate High
Time1453Z 03/16Z 03/17Z 03/18Z 03/19Z 03/20Z 03/21Z 03/22Z 03/23Z 04/00Z 04/01Z 04/02Z 04/03Z 04/04Z>>
Type OBS PRVL PRVL PRVL PRVL PRVL PRVL PRVL PRVL PRVL PRVL PRVL PRVL PRVL
VIS 10 >6 >6 >6 >6 >6 >6 >6 >6 >6 >6 >6 >6 >6
CIG -- 100 100 100 100 100 100 100 100 50 50 50 50 50
Cover CLR BKN BKN BKN BKN BKN BKN BKN BKN BKN BKN BKN BKN BKN
FltCat VFR VFR VFR VFR VFR VFR VFR VFR VFR VFR VFR VFR VFR VFR
WX -- -- -- -- -- -- -- -- -- -- -- -- -- --
WDir 320 290 290 290 290 290 290 290 290 VRB VRB VRB VRB VRB
WSpd 12 12 12 12 12 12 12 12 12 2 2 2 2 2
WGst 22 19 19 19 19 19 19 19 19 -- -- -- -- --
WSHgt -- -- -- -- -- -- -- -- -- -- -- -- -- --
WSDir -- -- -- -- -- -- -- -- -- -- -- -- -- --
WSSpd -- -- -- -- -- -- -- -- -- -- -- -- -- --
Raw TAF
KAOO 031346Z 0314/0412 30009G15KT P6SM BKN110
  FM031430 29012G19KT P6SM SCT050 BKN100
  FM040000 VRB02KT P6SM BKN050


Raw METAR
KAOO 031453Z AUTO 32012G22KT 10SM CLR 04/M03 A3002 RMK AO2 PK WND 29026/1424 SLP175 T00441028 51022
KAOO 031353Z AUTO 30013G24KT 10SM CLR 03/M03 A3001 RMK AO2 SLP171 T00331028
KAOO 031253Z AUTO 30007KT 10SM CLR 03/M03 A2999 RMK AO2 SLP163 T00281033

METAR Board
Radar Display
Forecast Discussion
For situational awareness. Not to be used for flight planning purposes.